BOIT2: Bois D' Arc Ck at FM 1396 nr Honey Grove, Tx

Data processed at Fri Jan 05 2018 23:54


All information presented herein is the property of the government of the United States of America and may be revised or deleted at any time without prior notice.
Dissemination of this information without the expressed written consent of the Public Affairs Office, Tulsa District U.S. Army Corps of Engineers is strictly prohibited.
These data are gathered electronically and, as presented, have not undergone any form of quality control. These data are not guaranteed to be valid or correct.
Go to home page.
Go to station list.

Downstream station:


Previous Day
Next Day
Current Day
    
SHEF ID:       BOIT2     Bois D'Arc Ck at FM 1396 nr Hone
STATION TYPE:  

                STAGE  RIV-FLOW  WTR-TEMP   DIS-OXY        PH   CONDUCT
                   ft       cfs         F      mg/l        su   umho/cm
              Ccp-Rev   Ccp-Rev   Ccp-Rev   Ccp-Rev   Ccp-Rev   Ccp-Rev
(US/Central)
01/03 00:00     68.37         5     31.82     14.14      8.26       503
01/03 01:00     68.38         5     32.00     14.17      8.26       505
01/03 02:00     68.38         5     32.00     14.17      8.26       497
01/03 03:00     68.38         5     32.00     14.16      8.27       497
01/03 04:00     68.38         5     32.00     14.18      8.27       498
01/03 05:00     68.32         4     32.00     14.17      8.27       499
01/03 06:00     68.35         5     32.00     14.18      8.26       503
01/03 07:00     68.38         5     32.00     14.17      8.26       505
01/03 08:00     68.36         5     32.00     14.15      8.26       507
01/03 09:00     68.39         6     32.00     14.15      8.26       507
01/03 10:00     68.48         9     32.00     14.07      8.26       506
01/03 11:00     68.60        12     32.00     14.04      8.25       502
01/03 12:00     68.62        12     32.18     13.96      8.26       514
01/03 13:00     68.54        10     32.72     13.91      8.26       515
01/03 14:00     68.42         7     33.26     13.84      8.26       515
01/03 15:00     68.39         6     33.62     13.79      8.25       515
01/03 16:00     68.38         5     33.62     13.76      8.25       514
01/03 17:00     68.37         5     33.26     13.73      8.26       513
01/03 18:00     68.38         5     33.08     13.72      8.26       513
01/03 19:00     68.38         5     33.08     13.71      8.26       515
01/03 20:00     68.36         5     32.90     13.74      8.26       517
01/03 21:00     68.35         5     32.54     13.78      8.26       520
01/03 22:00     68.33         4     32.36     13.82      8.26       522
01/03 23:00     68.34         4     32.18     13.85      8.26       523